createdAt,value
2022-12-31T00:01:13.954Z,32.50
2022-12-31T00:03:42.750Z,31.10
2022-12-31T00:06:23.177Z,27.50
2022-12-31T00:08:56.162Z,31.30
2022-12-31T00:11:26.338Z,29.90
2022-12-31T00:13:55.339Z,29.90
2022-12-31T00:16:29.914Z,32.20
2022-12-31T00:18:59.886Z,28.90
2022-12-31T00:21:32.247Z,29.20
2022-12-31T00:24:00.907Z,30.50
2022-12-31T00:26:30.806Z,31.60
2022-12-31T00:29:00.614Z,27.90
2022-12-31T00:31:33.326Z,29.20
2022-12-31T00:34:01.441Z,28.50
2022-12-31T00:36:32.808Z,32.80
2022-12-31T00:39:02.189Z,25.60
2022-12-31T00:41:30.621Z,22.40
2022-12-31T00:43:59.397Z,31.20
2022-12-31T00:46:27.424Z,32.50
2022-12-31T00:48:55.493Z,24.90
2022-12-31T00:51:27.517Z,28.10
2022-12-31T00:53:58.594Z,32.30
2022-12-31T00:56:29.639Z,28.80
2022-12-31T00:58:59.268Z,37.40
2022-12-31T01:01:30.771Z,24.60
2022-12-31T01:04:07.397Z,36.70
2022-12-31T01:06:35.844Z,27.80
2022-12-31T01:09:05.163Z,26.40
2022-12-31T01:11:33.307Z,28.50
2022-12-31T01:14:11.039Z,23.20
2022-12-31T01:16:42.968Z,26.70
2022-12-31T01:19:13.999Z,23.90
2022-12-31T01:21:43.629Z,25.80
2022-12-31T01:24:13.771Z,22.00
2022-12-31T01:26:42.692Z,21.20
2022-12-31T01:29:11.737Z,23.90
2022-12-31T01:31:41.020Z,22.90
2022-12-31T01:34:09.147Z,19.70
2022-12-31T01:36:38.452Z,21.60
2022-12-31T01:39:08.601Z,25.10
2022-12-31T01:41:42.979Z,23.60
2022-12-31T01:44:13.720Z,18.10
2022-12-31T01:46:48.523Z,21.70
2022-12-31T01:49:26.296Z,21.60
2022-12-31T01:52:01.335Z,22.30
2022-12-31T01:54:35.484Z,19.50
2022-12-31T01:57:05.354Z,18.70
2022-12-31T01:59:34.195Z,19.40
2022-12-31T02:02:03.142Z,19.70
2022-12-31T02:04:31.614Z,18.90
2022-12-31T02:07:07.218Z,19.40
2022-12-31T02:09:39.457Z,15.80
2022-12-31T02:12:09.689Z,14.00
2022-12-31T02:14:42.704Z,15.30
2022-12-31T02:17:24.467Z,13.90
2022-12-31T02:20:11.250Z,17.40
2022-12-31T02:23:11.632Z,15.50
2022-12-31T02:26:06.533Z,16.80
2022-12-31T02:28:57.476Z,15.40
2022-12-31T02:31:45.400Z,16.30
2022-12-31T02:34:24.549Z,15.60
2022-12-31T02:36:55.237Z,15.20
2022-12-31T02:39:23.421Z,15.10
2022-12-31T02:41:52.428Z,17.70
2022-12-31T02:44:34.390Z,14.50
2022-12-31T02:47:05.316Z,18.60
2022-12-31T02:49:52.547Z,15.10
2022-12-31T02:52:51.352Z,16.70
2022-12-31T02:55:33.061Z,16.40
2022-12-31T02:58:13.071Z,14.60
2022-12-31T03:01:12.935Z,20.20
2022-12-31T03:03:41.833Z,20.00
2022-12-31T03:06:11.678Z,18.60
2022-12-31T03:09:02.927Z,18.50
2022-12-31T03:11:49.776Z,14.80
2022-12-31T03:14:17.704Z,16.80
2022-12-31T03:16:45.823Z,17.30
2022-12-31T03:19:32.374Z,16.10
2022-12-31T03:22:19.884Z,17.30
2022-12-31T03:25:06.472Z,13.80
2022-12-31T03:27:34.600Z,19.10
2022-12-31T03:30:02.523Z,20.00
2022-12-31T03:32:30.517Z,19.30
2022-12-31T03:34:58.679Z,19.10
2022-12-31T03:37:26.634Z,20.30
2022-12-31T03:39:54.549Z,22.70
2022-12-31T03:42:23.148Z,19.40
2022-12-31T03:44:51.187Z,16.70
2022-12-31T03:47:19.104Z,21.30
2022-12-31T03:49:47.399Z,17.70
2022-12-31T03:52:15.284Z,20.60
2022-12-31T03:54:43.242Z,19.90
2022-12-31T03:57:11.712Z,15.60
2022-12-31T03:59:39.690Z,18.90
2022-12-31T04:02:07.787Z,20.90
2022-12-31T04:04:36.032Z,17.90
2022-12-31T04:07:04.134Z,17.00
2022-12-31T04:09:32.167Z,22.70
2022-12-31T04:12:00.341Z,21.20
2022-12-31T04:14:29.528Z,22.60
2022-12-31T04:16:57.669Z,21.50
2022-12-31T04:19:25.797Z,21.70
2022-12-31T04:21:53.672Z,18.60
2022-12-31T04:24:21.726Z,22.10
2022-12-31T04:26:50.403Z,17.80
2022-12-31T04:29:18.480Z,22.80
2022-12-31T04:31:47.130Z,19.20
2022-12-31T04:34:15.153Z,21.60
2022-12-31T04:36:43.034Z,17.70
2022-12-31T04:39:11.133Z,21.50
2022-12-31T04:41:39.181Z,22.60
2022-12-31T04:44:07.230Z,21.50
2022-12-31T04:46:35.362Z,22.90
2022-12-31T04:49:03.422Z,21.00
2022-12-31T04:51:31.825Z,25.00
2022-12-31T04:53:59.998Z,20.00
2022-12-31T04:56:28.700Z,20.10
2022-12-31T04:58:56.723Z,23.20
2022-12-31T05:01:25.248Z,22.10
2022-12-31T05:03:53.552Z,18.70
2022-12-31T05:06:23.874Z,21.40
2022-12-31T05:08:51.954Z,21.10
2022-12-31T05:11:20.017Z,19.40
2022-12-31T05:13:48.397Z,20.30
2022-12-31T05:16:16.693Z,22.10
2022-12-31T05:18:45.017Z,20.00
2022-12-31T05:21:18.439Z,20.30
2022-12-31T05:23:47.041Z,18.70
2022-12-31T05:26:15.484Z,19.70
2022-12-31T05:28:43.479Z,19.80
2022-12-31T05:31:11.703Z,19.60
2022-12-31T05:33:39.706Z,17.50
2022-12-31T05:36:07.915Z,19.90
2022-12-31T05:38:37.627Z,21.00
2022-12-31T05:41:08.202Z,19.00
2022-12-31T05:43:36.262Z,19.80
2022-12-31T05:46:04.970Z,19.70
2022-12-31T05:48:35.530Z,17.30
2022-12-31T05:51:03.625Z,17.00
2022-12-31T05:53:31.610Z,16.70
2022-12-31T05:55:59.551Z,17.90
2022-12-31T05:58:27.601Z,17.40
2022-12-31T06:00:55.842Z,16.90
2022-12-31T06:03:23.814Z,19.70
2022-12-31T06:05:52.081Z,18.10
2022-12-31T06:08:20.603Z,20.00
2022-12-31T06:10:48.646Z,20.80
2022-12-31T06:13:16.638Z,19.80
2022-12-31T06:15:44.827Z,16.70
2022-12-31T06:18:13.125Z,21.10
2022-12-31T06:20:41.021Z,20.30
2022-12-31T06:23:09.133Z,18.60
2022-12-31T06:25:37.248Z,17.00
2022-12-31T06:28:05.875Z,18.30
2022-12-31T06:30:34.132Z,18.10
2022-12-31T06:33:02.097Z,16.70
2022-12-31T06:35:30.049Z,19.20
2022-12-31T06:37:58.173Z,17.50
2022-12-31T06:40:26.301Z,18.90
2022-12-31T06:42:59.688Z,18.60
2022-12-31T06:45:28.630Z,19.00
2022-12-31T06:47:56.578Z,19.00
2022-12-31T06:50:24.531Z,18.50
2022-12-31T06:52:52.588Z,18.90
2022-12-31T06:55:20.908Z,22.50
2022-12-31T06:57:49.072Z,17.70
2022-12-31T07:00:17.786Z,20.50
2022-12-31T07:03:06.929Z,25.20
2022-12-31T07:06:23.289Z,19.90
2022-12-31T07:09:04.679Z,24.10
2022-12-31T07:11:44.768Z,19.80
2022-12-31T07:14:40.673Z,15.90
2022-12-31T07:17:29.186Z,14.20
2022-12-31T07:20:05.437Z,16.60
2022-12-31T07:22:33.783Z,15.00
2022-12-31T07:25:02.171Z,16.60
2022-12-31T07:27:53.017Z,15.40
2022-12-31T07:30:34.104Z,15.10
2022-12-31T07:33:26.213Z,15.30
2022-12-31T07:36:25.362Z,18.80
2022-12-31T07:38:56.605Z,17.50
2022-12-31T07:41:49.669Z,13.80
2022-12-31T07:44:43.183Z,15.40
2022-12-31T07:47:28.342Z,13.80
2022-12-31T07:49:57.805Z,12.90
2022-12-31T07:52:26.502Z,15.40
2022-12-31T07:54:54.568Z,13.00
2022-12-31T07:57:28.443Z,13.40
2022-12-31T08:00:12.236Z,14.70
2022-12-31T08:03:07.656Z,12.60
2022-12-31T08:05:57.643Z,14.20
2022-12-31T08:08:49.257Z,13.70
2022-12-31T08:11:49.022Z,17.20
2022-12-31T08:14:18.953Z,11.50
2022-12-31T08:16:47.672Z,13.50
2022-12-31T08:19:35.996Z,14.60
2022-12-31T08:22:10.761Z,12.50
2022-12-31T08:24:53.892Z,12.10
2022-12-31T08:27:34.269Z,11.20
2022-12-31T08:30:10.106Z,12.60
2022-12-31T08:32:44.986Z,13.70
2022-12-31T08:35:36.946Z,13.40
2022-12-31T08:38:31.000Z,12.20
2022-12-31T08:41:11.260Z,12.20
2022-12-31T08:43:44.881Z,12.70
2022-12-31T08:46:42.278Z,11.20
2022-12-31T08:49:10.718Z,12.80
2022-12-31T08:51:41.512Z,12.20
2022-12-31T08:54:15.449Z,11.10
2022-12-31T08:56:51.147Z,13.30
2022-12-31T08:59:34.781Z,10.80
2022-12-31T09:02:35.408Z,12.00
2022-12-31T09:05:26.663Z,12.40
2022-12-31T09:08:15.875Z,12.80
2022-12-31T09:10:54.451Z,11.30
2022-12-31T09:14:04.725Z,11.70
2022-12-31T09:16:53.841Z,12.80
2022-12-31T09:19:22.161Z,10.90
2022-12-31T09:21:54.669Z,12.40
2022-12-31T09:24:25.141Z,12.80
2022-12-31T09:27:22.463Z,11.00
2022-12-31T09:30:16.663Z,14.20
2022-12-31T09:33:12.541Z,10.80
2022-12-31T09:35:55.530Z,10.90
2022-12-31T09:38:30.079Z,9.80
2022-12-31T09:41:24.071Z,11.30
2022-12-31T09:44:30.435Z,9.80
2022-12-31T09:47:11.266Z,11.00
2022-12-31T09:49:48.288Z,10.60
2022-12-31T09:52:19.304Z,12.00
2022-12-31T09:54:54.183Z,11.10
2022-12-31T09:57:51.339Z,10.60
2022-12-31T10:00:33.379Z,13.10
2022-12-31T10:03:52.974Z,11.50
2022-12-31T10:06:43.537Z,10.80
2022-12-31T10:09:33.351Z,10.20
2022-12-31T10:12:23.616Z,12.40
2022-12-31T10:15:04.195Z,10.40
2022-12-31T10:17:41.294Z,11.10
2022-12-31T10:20:28.874Z,12.10
2022-12-31T10:23:03.338Z,9.30
2022-12-31T10:25:56.049Z,11.90
2022-12-31T10:28:55.009Z,10.10
2022-12-31T10:31:32.080Z,9.70
2022-12-31T10:34:14.699Z,11.30
2022-12-31T10:36:52.668Z,9.80
2022-12-31T10:39:41.831Z,10.10
2022-12-31T10:42:41.590Z,9.70
2022-12-31T10:45:46.474Z,8.20
2022-12-31T10:48:34.604Z,10.10
2022-12-31T10:51:27.198Z,8.60
2022-12-31T10:54:14.547Z,12.00
2022-12-31T10:56:45.338Z,9.30
2022-12-31T10:59:22.576Z,9.70
2022-12-31T11:02:09.259Z,9.00
2022-12-31T11:05:08.654Z,10.80
2022-12-31T11:07:58.214Z,9.40
2022-12-31T11:10:32.177Z,9.40
2022-12-31T11:13:22.047Z,9.60
2022-12-31T11:15:53.215Z,10.00
2022-12-31T11:18:39.253Z,8.80
2022-12-31T11:21:28.716Z,10.00
2022-12-31T11:24:10.195Z,8.80
2022-12-31T11:26:41.267Z,8.00
2022-12-31T11:29:32.848Z,7.90
2022-12-31T11:32:27.815Z,9.10
2022-12-31T11:35:15.725Z,8.30
2022-12-31T11:37:55.954Z,9.00
2022-12-31T11:40:54.032Z,9.20
2022-12-31T11:43:39.659Z,8.50
2022-12-31T11:46:20.967Z,9.10
2022-12-31T11:49:13.615Z,7.60
2022-12-31T11:52:16.013Z,6.90
2022-12-31T11:55:24.334Z,8.70
2022-12-31T11:57:53.261Z,7.40
2022-12-31T12:00:28.250Z,9.10
2022-12-31T12:03:03.672Z,8.10
2022-12-31T12:05:35.228Z,10.90
2022-12-31T12:08:03.450Z,10.10
2022-12-31T12:10:57.351Z,9.90
2022-12-31T12:13:28.090Z,12.50
2022-12-31T12:16:02.852Z,10.50
2022-12-31T12:18:47.583Z,9.80
2022-12-31T12:21:24.165Z,9.00
2022-12-31T12:24:04.484Z,10.40
2022-12-31T12:26:39.045Z,8.80
2022-12-31T12:29:22.171Z,7.70
2022-12-31T12:31:59.342Z,9.80
2022-12-31T12:34:34.664Z,8.10
2022-12-31T12:37:04.485Z,10.00
2022-12-31T12:39:34.563Z,7.60
2022-12-31T12:42:21.453Z,10.00
2022-12-31T12:45:01.013Z,11.20
2022-12-31T12:47:29.111Z,10.10
2022-12-31T12:49:57.217Z,10.70
2022-12-31T12:52:31.370Z,9.40
2022-12-31T12:55:18.241Z,12.00
2022-12-31T12:58:07.917Z,9.10
2022-12-31T13:00:50.280Z,10.60
2022-12-31T13:04:32.050Z,9.60
2022-12-31T13:06:53.696Z,11.00
2022-12-31T13:10:05.452Z,9.10
2022-12-31T13:13:22.248Z,8.10
2022-12-31T13:15:44.815Z,9.30
2022-12-31T13:18:23.407Z,9.40
2022-12-31T13:21:00.979Z,8.20
2022-12-31T13:23:48.838Z,10.00
2022-12-31T13:26:28.148Z,8.00
2022-12-31T13:28:58.628Z,8.90
2022-12-31T13:31:39.356Z,8.20
2022-12-31T13:34:14.680Z,8.50
2022-12-31T13:36:46.054Z,8.80
2022-12-31T13:39:36.317Z,8.10
2022-12-31T13:42:20.867Z,9.30
2022-12-31T13:44:56.335Z,9.10
2022-12-31T13:47:39.455Z,8.60
2022-12-31T13:50:42.668Z,8.40
2022-12-31T13:53:27.153Z,9.10
2022-12-31T13:56:02.202Z,9.40
2022-12-31T13:58:43.802Z,9.20
2022-12-31T14:02:02.124Z,8.40
2022-12-31T14:04:50.621Z,8.30
2022-12-31T14:07:27.818Z,7.80
2022-12-31T14:09:59.499Z,9.70
2022-12-31T14:12:39.795Z,8.10
2022-12-31T14:15:33.052Z,8.00
2022-12-31T14:18:40.912Z,8.50
2022-12-31T14:21:39.534Z,8.40
2022-12-31T14:24:18.552Z,10.40
2022-12-31T14:26:52.466Z,9.40
2022-12-31T14:29:26.535Z,9.60
2022-12-31T14:32:20.729Z,8.40
2022-12-31T14:34:49.838Z,9.30
2022-12-31T14:37:30.437Z,8.60
2022-12-31T14:40:24.946Z,8.60
2022-12-31T14:43:11.430Z,11.40
2022-12-31T14:45:58.340Z,8.30
2022-12-31T14:48:51.856Z,10.90
2022-12-31T14:51:19.967Z,9.10
2022-12-31T14:53:57.000Z,9.20
2022-12-31T14:56:40.765Z,10.30
2022-12-31T14:59:33.393Z,9.10
2022-12-31T15:02:26.411Z,8.90
2022-12-31T15:05:10.354Z,10.80
2022-12-31T15:07:47.298Z,9.70
2022-12-31T15:10:21.491Z,9.20
2022-12-31T15:12:59.267Z,10.90
2022-12-31T15:15:33.028Z,9.50
2022-12-31T15:18:01.203Z,9.50
2022-12-31T15:20:48.653Z,11.60
2022-12-31T15:23:25.581Z,9.50
2022-12-31T15:25:59.934Z,11.70
2022-12-31T15:28:35.568Z,10.10
2022-12-31T15:31:18.956Z,9.30
2022-12-31T15:33:58.471Z,9.70
2022-12-31T15:36:33.183Z,10.40
2022-12-31T15:39:36.437Z,10.90
2022-12-31T15:42:38.637Z,10.10
2022-12-31T15:45:17.439Z,11.00
2022-12-31T15:48:01.983Z,9.70
2022-12-31T15:50:31.049Z,11.60
2022-12-31T15:53:02.806Z,11.50
2022-12-31T15:55:41.714Z,8.30
2022-12-31T15:58:16.694Z,8.90
2022-12-31T16:01:19.389Z,9.10
2022-12-31T16:04:01.037Z,8.50
2022-12-31T16:06:31.841Z,9.80
2022-12-31T16:09:00.054Z,9.50
2022-12-31T16:11:30.844Z,7.80
2022-12-31T16:13:59.935Z,12.80
2022-12-31T16:16:31.652Z,8.70
2022-12-31T16:19:01.320Z,10.10
2022-12-31T16:21:32.918Z,9.00
2022-12-31T16:24:04.247Z,10.50
2022-12-31T16:26:54.145Z,8.30
2022-12-31T16:29:24.290Z,9.20
2022-12-31T16:31:54.118Z,10.00
2022-12-31T16:34:24.916Z,9.00
2022-12-31T16:37:01.926Z,10.30
2022-12-31T16:39:34.168Z,14.80
2022-12-31T16:42:08.709Z,13.20
2022-12-31T16:44:36.797Z,17.40
2022-12-31T16:47:07.371Z,13.50
2022-12-31T16:49:38.983Z,15.10
2022-12-31T16:52:28.077Z,12.30
2022-12-31T16:54:57.217Z,9.60
2022-12-31T16:57:30.211Z,9.10
2022-12-31T17:00:02.740Z,9.30
2022-12-31T17:02:38.338Z,12.10
2022-12-31T17:05:22.359Z,10.30
2022-12-31T17:07:51.057Z,12.70
2022-12-31T17:10:32.612Z,9.90
2022-12-31T17:15:55.421Z,7.90
2022-12-31T17:18:34.330Z,10.70
2022-12-31T17:21:10.933Z,9.80
2022-12-31T17:23:41.512Z,7.60
2022-12-31T17:26:22.190Z,7.50
2022-12-31T17:28:52.041Z,8.50
2022-12-31T17:31:31.080Z,8.10
2022-12-31T17:34:20.956Z,8.80
2022-12-31T17:37:09.447Z,9.10
2022-12-31T17:39:47.721Z,8.40
2022-12-31T17:42:25.152Z,8.90
2022-12-31T17:45:21.391Z,9.70
2022-12-31T17:47:53.801Z,13.10
2022-12-31T17:50:24.949Z,9.20
2022-12-31T17:52:57.620Z,9.30
2022-12-31T17:55:26.571Z,9.80
2022-12-31T17:57:57.260Z,9.70
2022-12-31T18:00:27.085Z,9.40
2022-12-31T18:02:55.327Z,7.70
2022-12-31T18:05:24.879Z,11.60
2022-12-31T18:07:52.985Z,9.60
2022-12-31T18:10:24.047Z,9.80
2022-12-31T18:12:52.627Z,7.70
2022-12-31T18:15:22.764Z,8.10
2022-12-31T18:17:51.247Z,8.20
2022-12-31T18:20:19.429Z,8.30
2022-12-31T18:22:47.567Z,7.10
2022-12-31T18:25:24.057Z,8.80
2022-12-31T18:27:52.024Z,8.60
2022-12-31T18:30:20.413Z,10.60
2022-12-31T18:32:48.711Z,9.20
2022-12-31T18:38:15.354Z,8.80
2022-12-31T18:40:48.628Z,12.80
2022-12-31T18:43:18.819Z,9.50
2022-12-31T18:45:47.644Z,11.90
2022-12-31T18:48:16.111Z,7.80
2022-12-31T18:50:45.437Z,8.70
2022-12-31T18:53:21.678Z,9.30
2022-12-31T18:55:55.674Z,8.70
2022-12-31T18:58:24.231Z,10.80
2022-12-31T19:00:52.634Z,11.60
2022-12-31T19:03:23.519Z,10.00
2022-12-31T19:05:52.070Z,12.20
2022-12-31T19:08:22.607Z,11.80
2022-12-31T19:10:52.041Z,9.90
2022-12-31T19:13:20.443Z,9.70
2022-12-31T19:15:51.404Z,10.60
2022-12-31T19:18:19.380Z,9.30
2022-12-31T19:20:47.944Z,8.80
2022-12-31T19:23:18.387Z,8.60
2022-12-31T19:25:47.988Z,10.80
2022-12-31T19:28:21.677Z,9.80
2022-12-31T19:30:50.271Z,9.40
2022-12-31T19:33:18.658Z,9.00
2022-12-31T19:35:47.780Z,9.20
2022-12-31T19:38:18.552Z,8.60
2022-12-31T19:40:47.782Z,10.40
2022-12-31T19:43:17.768Z,10.50
2022-12-31T19:45:46.703Z,10.90
2022-12-31T19:48:21.687Z,8.20
2022-12-31T19:50:53.914Z,10.60
2022-12-31T19:53:25.276Z,9.80
2022-12-31T19:55:53.584Z,9.30
2022-12-31T19:58:27.392Z,10.50
2022-12-31T20:01:02.492Z,11.40
2022-12-31T20:03:32.988Z,8.80
2022-12-31T20:06:07.206Z,10.70
2022-12-31T20:08:37.257Z,9.80
2022-12-31T20:11:14.169Z,11.30
2022-12-31T20:13:42.446Z,7.60
2022-12-31T20:16:17.286Z,10.40
2022-12-31T20:18:47.502Z,10.00
2022-12-31T20:21:21.405Z,10.50
2022-12-31T20:23:51.040Z,11.30
2022-12-31T20:26:20.730Z,8.40
2022-12-31T20:28:51.282Z,10.00
2022-12-31T20:31:23.717Z,11.20
2022-12-31T20:33:53.683Z,8.40
2022-12-31T20:36:22.646Z,10.50
2022-12-31T20:38:50.711Z,10.40
2022-12-31T20:41:21.683Z,12.60
2022-12-31T20:43:49.813Z,11.60
2022-12-31T20:46:24.859Z,9.70
2022-12-31T20:48:55.479Z,10.50
2022-12-31T20:51:24.423Z,9.70
2022-12-31T20:53:57.752Z,10.30
2022-12-31T20:56:27.919Z,10.10
2022-12-31T20:58:56.672Z,11.70
2022-12-31T21:01:25.639Z,8.50
2022-12-31T21:04:05.272Z,10.80
2022-12-31T21:06:35.461Z,9.00
2022-12-31T21:09:07.223Z,9.00
2022-12-31T21:11:54.442Z,10.60
2022-12-31T21:14:22.684Z,10.50
2022-12-31T21:16:50.827Z,8.70
2022-12-31T21:19:18.782Z,10.50
2022-12-31T21:21:48.372Z,10.80
2022-12-31T21:24:23.239Z,8.50
2022-12-31T21:26:55.338Z,9.70
2022-12-31T21:29:23.637Z,9.20
2022-12-31T21:31:51.540Z,9.30
2022-12-31T21:34:19.677Z,10.80
2022-12-31T21:36:47.592Z,11.00
2022-12-31T21:39:15.573Z,10.90
2022-12-31T21:41:53.022Z,10.70
2022-12-31T21:44:23.655Z,10.40
2022-12-31T21:47:39.733Z,11.60
2022-12-31T21:50:08.988Z,10.10
2022-12-31T21:52:37.249Z,10.70
2022-12-31T21:55:25.227Z,10.80
2022-12-31T21:58:25.283Z,11.60
2022-12-31T22:01:00.080Z,10.50
2022-12-31T22:03:28.816Z,8.70
2022-12-31T22:06:01.961Z,9.80
2022-12-31T22:08:31.489Z,9.60
2022-12-31T22:10:59.421Z,9.00
2022-12-31T22:13:27.542Z,11.50
2022-12-31T22:16:04.282Z,10.30
2022-12-31T22:18:38.915Z,12.40
2022-12-31T22:21:21.869Z,11.30
2022-12-31T22:23:52.368Z,9.50
2022-12-31T22:26:23.817Z,9.50
2022-12-31T22:28:52.642Z,9.60
2022-12-31T22:31:24.647Z,11.40
2022-12-31T22:33:53.628Z,8.40
2022-12-31T22:36:23.096Z,10.00
2022-12-31T22:38:55.558Z,8.50
2022-12-31T22:41:25.265Z,8.10
2022-12-31T22:44:02.582Z,7.50
2022-12-31T22:46:32.392Z,8.70
2022-12-31T22:49:03.088Z,7.40
2022-12-31T22:51:56.361Z,7.50
2022-12-31T22:54:20.440Z,8.70
2022-12-31T22:56:48.409Z,9.70
2022-12-31T22:59:16.479Z,8.10
2022-12-31T23:01:44.717Z,10.60
2022-12-31T23:04:12.888Z,12.40
2022-12-31T23:06:43.819Z,11.70
2022-12-31T23:09:35.416Z,10.30
2022-12-31T23:12:06.006Z,15.20
2022-12-31T23:14:53.114Z,18.80
2022-12-31T23:17:42.572Z,24.60
2022-12-31T23:20:41.222Z,22.80
2022-12-31T23:23:15.576Z,21.30
2022-12-31T23:25:47.949Z,16.70
2022-12-31T23:28:20.001Z,15.70
2022-12-31T23:30:48.826Z,15.40
2022-12-31T23:33:19.774Z,14.20
2022-12-31T23:35:47.894Z,14.50
2022-12-31T23:38:17.804Z,12.20
2022-12-31T23:40:46.119Z,11.30
2022-12-31T23:43:22.533Z,9.20
2022-12-31T23:45:51.297Z,9.60
2022-12-31T23:48:19.279Z,10.00
2022-12-31T23:50:54.009Z,8.20
2022-12-31T23:53:24.027Z,9.70
2022-12-31T23:55:52.813Z,9.20
2022-12-31T23:58:21.311Z,8.50
